sensor_id;sensor_type;location;lat;lon;timestamp;pressure;altitude;pressure_sealevel;temperature
68952;BMP180;56000;51.146;17.112;2023-02-28T00:02:14;101614.00;;;1.20
68952;BMP180;56000;51.146;17.112;2023-02-28T00:04:49;101613.60;;;1.20
68952;BMP180;56000;51.146;17.112;2023-02-28T00:07:24;101614.40;;;1.20
68952;BMP180;56000;51.146;17.112;2023-02-28T00:09:57;101608.60;;;1.20
68952;BMP180;56000;51.146;17.112;2023-02-28T00:12:31;101605.80;;;1.20
68952;BMP180;56000;51.146;17.112;2023-02-28T00:15:07;101606.40;;;1.20
68952;BMP180;56000;51.146;17.112;2023-02-28T00:17:41;101611.20;;;1.20
68952;BMP180;56000;51.146;17.112;2023-02-28T00:20:15;101610.60;;;1.20
68952;BMP180;56000;51.146;17.112;2023-02-28T00:22:51;101614.40;;;1.20
68952;BMP180;56000;51.146;17.112;2023-02-28T00:25:26;101610.40;;;1.20
68952;BMP180;56000;51.146;17.112;2023-02-28T00:27:59;101610.60;;;1.20
68952;BMP180;56000;51.146;17.112;2023-02-28T00:30:32;101610.20;;;1.20
68952;BMP180;56000;51.146;17.112;2023-02-28T00:33:08;101606.40;;;1.20
68952;BMP180;56000;51.146;17.112;2023-02-28T00:35:42;101603.00;;;1.22
68952;BMP180;56000;51.146;17.112;2023-02-28T00:38:18;101607.80;;;1.26
68952;BMP180;56000;51.146;17.112;2023-02-28T00:40:51;101603.40;;;1.28
68952;BMP180;56000;51.146;17.112;2023-02-28T00:43:24;101603.20;;;1.30
68952;BMP180;56000;51.146;17.112;2023-02-28T00:45:57;101592.20;;;1.30
68952;BMP180;56000;51.146;17.112;2023-02-28T00:48:31;101597.00;;;1.30
68952;BMP180;56000;51.146;17.112;2023-02-28T00:51:04;101594.00;;;1.30
68952;BMP180;56000;51.146;17.112;2023-02-28T00:53:38;101593.60;;;1.30
68952;BMP180;56000;51.146;17.112;2023-02-28T00:56:11;101593.80;;;1.30
68952;BMP180;56000;51.146;17.112;2023-02-28T00:58:45;101592.20;;;1.30
68952;BMP180;56000;51.146;17.112;2023-02-28T01:01:18;101593.80;;;1.30
68952;BMP180;56000;51.146;17.112;2023-02-28T01:03:51;101592.20;;;1.30
68952;BMP180;56000;51.146;17.112;2023-02-28T01:06:24;101598.80;;;1.30
68952;BMP180;56000;51.146;17.112;2023-02-28T01:08:58;101597.20;;;1.30
68952;BMP180;56000;51.146;17.112;2023-02-28T01:11:33;101599.00;;;1.30
68952;BMP180;56000;51.146;17.112;2023-02-28T01:14:06;101597.00;;;1.30
68952;BMP180;56000;51.146;17.112;2023-02-28T01:16:41;101593.80;;;1.30
68952;BMP180;56000;51.146;17.112;2023-02-28T01:19:14;101592.60;;;1.26
68952;BMP180;56000;51.146;17.112;2023-02-28T01:21:48;101592.20;;;1.24
68952;BMP180;56000;51.146;17.112;2023-02-28T01:24:22;101589.40;;;1.30
68952;BMP180;56000;51.146;17.112;2023-02-28T01:26:55;101590.00;;;1.20
68952;BMP180;56000;51.146;17.112;2023-02-28T01:29:28;101587.40;;;1.20
68952;BMP180;56000;51.146;17.112;2023-02-28T01:32:01;101584.80;;;1.20
68952;BMP180;56000;51.146;17.112;2023-02-28T01:34:34;101590.20;;;1.20
68952;BMP180;56000;51.146;17.112;2023-02-28T01:37:08;101594.20;;;1.20
68952;BMP180;56000;51.146;17.112;2023-02-28T01:39:41;101594.20;;;1.12
68952;BMP180;56000;51.146;17.112;2023-02-28T01:42:14;101587.40;;;1.10
68952;BMP180;56000;51.146;17.112;2023-02-28T01:45:22;101583.00;;;1.10
68952;BMP180;56000;51.146;17.112;2023-02-28T01:48:00;101577.80;;;1.10
68952;BMP180;56000;51.146;17.112;2023-02-28T01:50:41;101580.40;;;1.04
68952;BMP180;56000;51.146;17.112;2023-02-28T01:53:21;101583.40;;;1.00
68952;BMP180;56000;51.146;17.112;2023-02-28T01:55:55;101585.00;;;1.00
68952;BMP180;56000;51.146;17.112;2023-02-28T01:58:29;101584.20;;;1.00
68952;BMP180;56000;51.146;17.112;2023-02-28T02:01:03;101583.20;;;1.00
68952;BMP180;56000;51.146;17.112;2023-02-28T02:03:37;101587.40;;;1.06
68952;BMP180;56000;51.146;17.112;2023-02-28T02:06:10;101585.60;;;1.10
68952;BMP180;56000;51.146;17.112;2023-02-28T02:08:45;101586.80;;;1.10
68952;BMP180;56000;51.146;17.112;2023-02-28T02:11:22;101584.40;;;1.08
68952;BMP180;56000;51.146;17.112;2023-02-28T02:14:20;101587.00;;;1.04
68952;BMP180;56000;51.146;17.112;2023-02-28T02:17:10;101583.20;;;1.10
68952;BMP180;56000;51.146;17.112;2023-02-28T02:20:35;101582.60;;;1.10
68952;BMP180;56000;51.146;17.112;2023-02-28T02:24:00;101588.00;;;1.10
68952;BMP180;56000;51.146;17.112;2023-02-28T02:27:00;101584.00;;;1.10
68952;BMP180;56000;51.146;17.112;2023-02-28T02:30:09;101580.00;;;1.10
68952;BMP180;56000;51.146;17.112;2023-02-28T02:36:02;101581.80;;;1.10
68952;BMP180;56000;51.146;17.112;2023-02-28T02:38:42;101584.40;;;1.10
68952;BMP180;56000;51.146;17.112;2023-02-28T02:41:28;101583.20;;;1.10
68952;BMP180;56000;51.146;17.112;2023-02-28T02:44:10;101579.40;;;1.10
68952;BMP180;56000;51.146;17.112;2023-02-28T02:46:45;101583.00;;;1.10
68952;BMP180;56000;51.146;17.112;2023-02-28T02:49:24;101585.20;;;1.10
68952;BMP180;56000;51.146;17.112;2023-02-28T02:52:03;101579.40;;;1.10
68952;BMP180;56000;51.146;17.112;2023-02-28T02:54:40;101578.40;;;1.10
68952;BMP180;56000;51.146;17.112;2023-02-28T02:57:18;101581.20;;;1.10
68952;BMP180;56000;51.146;17.112;2023-02-28T02:59:54;101579.80;;;1.10
68952;BMP180;56000;51.146;17.112;2023-02-28T03:02:29;101578.60;;;1.10
68952;BMP180;56000;51.146;17.112;2023-02-28T03:05:14;101577.20;;;1.10
68952;BMP180;56000;51.146;17.112;2023-02-28T03:07:50;101584.80;;;1.10
68952;BMP180;56000;51.146;17.112;2023-02-28T03:10:39;101580.20;;;1.08
68952;BMP180;56000;51.146;17.112;2023-02-28T03:13:37;101580.20;;;1.00
68952;BMP180;56000;51.146;17.112;2023-02-28T03:16:35;101579.00;;;1.00
68952;BMP180;56000;51.146;17.112;2023-02-28T03:19:47;101579.60;;;1.00
68952;BMP180;56000;51.146;17.112;2023-02-28T03:22:39;101582.40;;;1.00
68952;BMP180;56000;51.146;17.112;2023-02-28T03:25:28;101583.80;;;1.00
68952;BMP180;56000;51.146;17.112;2023-02-28T03:28:10;101579.40;;;1.04
68952;BMP180;56000;51.146;17.112;2023-02-28T03:30:52;101584.20;;;1.04
68952;BMP180;56000;51.146;17.112;2023-02-28T03:33:32;101587.80;;;1.00
68952;BMP180;56000;51.146;17.112;2023-02-28T03:36:10;101593.00;;;1.00
68952;BMP180;56000;51.146;17.112;2023-02-28T03:38:48;101588.80;;;1.00
68952;BMP180;56000;51.146;17.112;2023-02-28T03:41:25;101587.60;;;1.04
68952;BMP180;56000;51.146;17.112;2023-02-28T03:44:05;101593.60;;;1.10
68952;BMP180;56000;51.146;17.112;2023-02-28T03:46:44;101603.60;;;1.10
68952;BMP180;56000;51.146;17.112;2023-02-28T03:49:22;101597.00;;;1.10
68952;BMP180;56000;51.146;17.112;2023-02-28T03:51:57;101598.60;;;1.08
68952;BMP180;56000;51.146;17.112;2023-02-28T03:54:33;101595.00;;;1.08
68952;BMP180;56000;51.146;17.112;2023-02-28T03:57:12;101596.80;;;1.00
68952;BMP180;56000;51.146;17.112;2023-02-28T03:59:53;101599.60;;;1.00
68952;BMP180;56000;51.146;17.112;2023-02-28T04:02:27;101600.40;;;1.00
68952;BMP180;56000;51.146;17.112;2023-02-28T04:05:00;101604.20;;;1.00
68952;BMP180;56000;51.146;17.112;2023-02-28T04:07:34;101605.00;;;1.00
68952;BMP180;56000;51.146;17.112;2023-02-28T04:10:10;101606.60;;;1.00
68952;BMP180;56000;51.146;17.112;2023-02-28T04:12:44;101607.40;;;1.00
68952;BMP180;56000;51.146;17.112;2023-02-28T04:15:17;101608.00;;;1.00
68952;BMP180;56000;51.146;17.112;2023-02-28T04:17:56;101605.00;;;1.00
68952;BMP180;56000;51.146;17.112;2023-02-28T04:20:29;101608.40;;;1.00
68952;BMP180;56000;51.146;17.112;2023-02-28T04:23:03;101611.00;;;0.98
68952;BMP180;56000;51.146;17.112;2023-02-28T04:25:36;101616.00;;;1.00
68952;BMP180;56000;51.146;17.112;2023-02-28T04:28:09;101615.40;;;1.00
68952;BMP180;56000;51.146;17.112;2023-02-28T04:30:42;101615.00;;;0.96
68952;BMP180;56000;51.146;17.112;2023-02-28T04:33:15;101622.80;;;0.98
68952;BMP180;56000;51.146;17.112;2023-02-28T04:35:48;101620.20;;;1.00
68952;BMP180;56000;51.146;17.112;2023-02-28T04:38:21;101624.60;;;1.00
68952;BMP180;56000;51.146;17.112;2023-02-28T04:40:56;101626.40;;;1.00
68952;BMP180;56000;51.146;17.112;2023-02-28T04:43:31;101622.20;;;1.00
68952;BMP180;56000;51.146;17.112;2023-02-28T04:46:06;101622.00;;;1.00
68952;BMP180;56000;51.146;17.112;2023-02-28T04:48:40;101627.80;;;1.00
68952;BMP180;56000;51.146;17.112;2023-02-28T04:51:16;101623.60;;;1.00
68952;BMP180;56000;51.146;17.112;2023-02-28T04:53:51;101624.60;;;1.00
68952;BMP180;56000;51.146;17.112;2023-02-28T04:56:25;101626.40;;;1.00
68952;BMP180;56000;51.146;17.112;2023-02-28T04:58:59;101629.00;;;1.00
68952;BMP180;56000;51.146;17.112;2023-02-28T05:01:34;101628.00;;;1.00
68952;BMP180;56000;51.146;17.112;2023-02-28T05:04:08;101630.60;;;1.00
68952;BMP180;56000;51.146;17.112;2023-02-28T05:06:42;101628.60;;;1.00
68952;BMP180;56000;51.146;17.112;2023-02-28T05:09:15;101633.00;;;1.00
68952;BMP180;56000;51.146;17.112;2023-02-28T05:11:48;101628.00;;;1.00
68952;BMP180;56000;51.146;17.112;2023-02-28T05:14:21;101630.80;;;1.00
68952;BMP180;56000;51.146;17.112;2023-02-28T05:16:54;101628.80;;;1.00
68952;BMP180;56000;51.146;17.112;2023-02-28T05:19:27;101634.20;;;1.00
68952;BMP180;56000;51.146;17.112;2023-02-28T05:22:00;101631.80;;;1.00
68952;BMP180;56000;51.146;17.112;2023-02-28T05:24:34;101633.80;;;1.00
68952;BMP180;56000;51.146;17.112;2023-02-28T05:27:07;101633.00;;;1.00
68952;BMP180;56000;51.146;17.112;2023-02-28T05:29:40;101638.80;;;1.00
68952;BMP180;56000;51.146;17.112;2023-02-28T05:32:15;101634.80;;;1.00
68952;BMP180;56000;51.146;17.112;2023-02-28T05:34:48;101637.60;;;1.00
68952;BMP180;56000;51.146;17.112;2023-02-28T05:37:21;101640.60;;;1.00
68952;BMP180;56000;51.146;17.112;2023-02-28T05:39:54;101639.60;;;1.00
68952;BMP180;56000;51.146;17.112;2023-02-28T05:42:27;101642.20;;;1.00
68952;BMP180;56000;51.146;17.112;2023-02-28T05:45:00;101645.20;;;1.00
68952;BMP180;56000;51.146;17.112;2023-02-28T05:47:34;101652.20;;;1.00
68952;BMP180;56000;51.146;17.112;2023-02-28T05:50:09;101658.60;;;1.00
68952;BMP180;56000;51.146;17.112;2023-02-28T05:52:43;101662.40;;;1.00
68952;BMP180;56000;51.146;17.112;2023-02-28T05:55:16;101662.20;;;0.96
68952;BMP180;56000;51.146;17.112;2023-02-28T05:57:49;101665.00;;;0.92
68952;BMP180;56000;51.146;17.112;2023-02-28T06:00:24;101666.00;;;0.90
68952;BMP180;56000;51.146;17.112;2023-02-28T06:02:57;101667.80;;;0.90
68952;BMP180;56000;51.146;17.112;2023-02-28T06:05:33;101667.20;;;0.90
68952;BMP180;56000;51.146;17.112;2023-02-28T06:08:06;101674.00;;;0.92
68952;BMP180;56000;51.146;17.112;2023-02-28T06:10:40;101680.20;;;1.00
68952;BMP180;56000;51.146;17.112;2023-02-28T06:13:13;101681.80;;;1.00
68952;BMP180;56000;51.146;17.112;2023-02-28T06:15:47;101681.40;;;1.10
68952;BMP180;56000;51.146;17.112;2023-02-28T06:18:21;101678.60;;;1.10
68952;BMP180;56000;51.146;17.112;2023-02-28T06:20:56;101682.80;;;1.22
68952;BMP180;56000;51.146;17.112;2023-02-28T06:23:30;101683.40;;;1.38
68952;BMP180;56000;51.146;17.112;2023-02-28T06:26:04;101683.60;;;1.50
68952;BMP180;56000;51.146;17.112;2023-02-28T06:28:37;101683.00;;;1.56
68952;BMP180;56000;51.146;17.112;2023-02-28T06:31:13;101685.00;;;1.60
68952;BMP180;56000;51.146;17.112;2023-02-28T06:33:47;101686.00;;;1.60
68952;BMP180;56000;51.146;17.112;2023-02-28T06:36:21;101689.00;;;1.60
68952;BMP180;56000;51.146;17.112;2023-02-28T06:38:54;101689.80;;;1.60
68952;BMP180;56000;51.146;17.112;2023-02-28T06:41:28;101691.80;;;1.60
68952;BMP180;56000;51.146;17.112;2023-02-28T06:44:17;101695.80;;;1.68
68952;BMP180;56000;51.146;17.112;2023-02-28T06:46:50;101691.40;;;1.70
68952;BMP180;56000;51.146;17.112;2023-02-28T06:49:23;101694.40;;;1.70
68952;BMP180;56000;51.146;17.112;2023-02-28T06:51:57;101704.20;;;1.70
68952;BMP180;56000;51.146;17.112;2023-02-28T06:54:30;101702.60;;;1.70
68952;BMP180;56000;51.146;17.112;2023-02-28T06:57:03;101700.00;;;1.70
68952;BMP180;56000;51.146;17.112;2023-02-28T06:59:37;101699.40;;;1.70
68952;BMP180;56000;51.146;17.112;2023-02-28T07:02:11;101700.00;;;1.80
68952;BMP180;56000;51.146;17.112;2023-02-28T07:04:44;101700.00;;;1.80
68952;BMP180;56000;51.146;17.112;2023-02-28T07:07:17;101697.00;;;1.80
68952;BMP180;56000;51.146;17.112;2023-02-28T07:09:50;101697.40;;;1.90
68952;BMP180;56000;51.146;17.112;2023-02-28T07:12:23;101704.40;;;1.90
68952;BMP180;56000;51.146;17.112;2023-02-28T07:14:57;101701.40;;;1.90
68952;BMP180;56000;51.146;17.112;2023-02-28T07:17:30;101705.40;;;2.00
68952;BMP180;56000;51.146;17.112;2023-02-28T07:20:03;101708.20;;;2.00
68952;BMP180;56000;51.146;17.112;2023-02-28T07:22:37;101703.60;;;2.04
68952;BMP180;56000;51.146;17.112;2023-02-28T07:25:12;101706.00;;;2.10
68952;BMP180;56000;51.146;17.112;2023-02-28T07:27:45;101709.40;;;2.16
68952;BMP180;56000;51.146;17.112;2023-02-28T07:30:19;101705.40;;;2.20
68952;BMP180;56000;51.146;17.112;2023-02-28T07:32:53;101706.80;;;2.30
68952;BMP180;56000;51.146;17.112;2023-02-28T07:35:27;101708.80;;;2.40
68952;BMP180;56000;51.146;17.112;2023-02-28T07:38:02;101708.00;;;2.50
68952;BMP180;56000;51.146;17.112;2023-02-28T07:40:36;101706.60;;;2.60
68952;BMP180;56000;51.146;17.112;2023-02-28T07:43:09;101712.20;;;2.60
68952;BMP180;56000;51.146;17.112;2023-02-28T07:45:42;101707.40;;;2.70
68952;BMP180;56000;51.146;17.112;2023-02-28T07:48:15;101711.20;;;2.80
68952;BMP180;56000;51.146;17.112;2023-02-28T07:50:55;101717.20;;;2.90
68952;BMP180;56000;51.146;17.112;2023-02-28T07:53:27;101716.00;;;2.90
68952;BMP180;56000;51.146;17.112;2023-02-28T07:56:02;101711.00;;;2.90
68952;BMP180;56000;51.146;17.112;2023-02-28T07:58:35;101708.00;;;3.00
68952;BMP180;56000;51.146;17.112;2023-02-28T08:01:12;101713.60;;;3.10
68952;BMP180;56000;51.146;17.112;2023-02-28T08:03:46;101705.80;;;3.22
68952;BMP180;56000;51.146;17.112;2023-02-28T08:06:24;101703.00;;;3.40
68952;BMP180;56000;51.146;17.112;2023-02-28T08:08:58;101710.20;;;3.80
68952;BMP180;56000;51.146;17.112;2023-02-28T08:11:31;101704.40;;;4.24
68952;BMP180;56000;51.146;17.112;2023-02-28T08:14:04;101703.80;;;4.68
68952;BMP180;56000;51.146;17.112;2023-02-28T08:16:37;101704.00;;;5.14
68952;BMP180;56000;51.146;17.112;2023-02-28T08:19:10;101703.80;;;5.50
68952;BMP180;56000;51.146;17.112;2023-02-28T08:21:44;101706.20;;;5.92
68952;BMP180;56000;51.146;17.112;2023-02-28T08:24:17;101707.60;;;6.36
68952;BMP180;56000;51.146;17.112;2023-02-28T08:26:50;101701.00;;;6.84
68952;BMP180;56000;51.146;17.112;2023-02-28T08:29:23;101698.00;;;7.22
68952;BMP180;56000;51.146;17.112;2023-02-28T08:31:57;101695.20;;;7.30
68952;BMP180;56000;51.146;17.112;2023-02-28T08:34:30;101693.40;;;7.40
68952;BMP180;56000;51.146;17.112;2023-02-28T08:37:03;101693.40;;;7.60
68952;BMP180;56000;51.146;17.112;2023-02-28T08:39:38;101693.00;;;7.98
68952;BMP180;56000;51.146;17.112;2023-02-28T08:42:12;101690.80;;;8.38
68952;BMP180;56000;51.146;17.112;2023-02-28T08:44:45;101694.20;;;8.78
68952;BMP180;56000;51.146;17.112;2023-02-28T08:47:19;101694.60;;;9.28
68952;BMP180;56000;51.146;17.112;2023-02-28T08:49:52;101693.40;;;9.80
68952;BMP180;56000;51.146;17.112;2023-02-28T08:52:25;101692.40;;;10.08
68952;BMP180;56000;51.146;17.112;2023-02-28T08:55:01;101688.40;;;10.40
68952;BMP180;56000;51.146;17.112;2023-02-28T08:57:35;101693.40;;;10.84
68952;BMP180;56000;51.146;17.112;2023-02-28T09:00:11;101690.80;;;11.14
68952;BMP180;56000;51.146;17.112;2023-02-28T09:02:45;101688.40;;;11.50
68952;BMP180;56000;51.146;17.112;2023-02-28T09:05:19;101691.80;;;11.60
68952;BMP180;56000;51.146;17.112;2023-02-28T09:07:52;101691.60;;;11.74
68952;BMP180;56000;51.146;17.112;2023-02-28T09:10:26;101690.60;;;12.00
68952;BMP180;56000;51.146;17.112;2023-02-28T09:12:59;101689.20;;;12.10
68952;BMP180;56000;51.146;17.112;2023-02-28T09:15:33;101692.80;;;12.14
68952;BMP180;56000;51.146;17.112;2023-02-28T09:18:06;101683.00;;;12.30
68952;BMP180;56000;51.146;17.112;2023-02-28T09:20:42;101684.60;;;12.60
68952;BMP180;56000;51.146;17.112;2023-02-28T09:23:15;101678.00;;;12.80
68952;BMP180;56000;51.146;17.112;2023-02-28T09:25:53;101678.60;;;12.60
68952;BMP180;56000;51.146;17.112;2023-02-28T09:28:27;101679.20;;;12.70
68952;BMP180;56000;51.146;17.112;2023-02-28T09:31:00;101672.60;;;12.90
68952;BMP180;56000;51.146;17.112;2023-02-28T09:33:36;101666.20;;;13.16
68952;BMP180;56000;51.146;17.112;2023-02-28T09:36:10;101673.20;;;13.80
68952;BMP180;56000;51.146;17.112;2023-02-28T09:38:43;101671.20;;;14.56
68952;BMP180;56000;51.146;17.112;2023-02-28T09:41:22;101667.40;;;15.12
68952;BMP180;56000;51.146;17.112;2023-02-28T09:43:59;101668.00;;;15.10
68952;BMP180;56000;51.146;17.112;2023-02-28T09:46:39;101660.20;;;15.10
68952;BMP180;56000;51.146;17.112;2023-02-28T09:49:17;101659.60;;;15.20
68952;BMP180;56000;51.146;17.112;2023-02-28T09:51:57;101668.40;;;15.74
68952;BMP180;56000;51.146;17.112;2023-02-28T09:54:34;101669.40;;;16.30
68952;BMP180;56000;51.146;17.112;2023-02-28T09:57:17;101672.40;;;17.06
68952;BMP180;56000;51.146;17.112;2023-02-28T10:00:07;101674.60;;;17.60
68952;BMP180;56000;51.146;17.112;2023-02-28T10:05:43;101674.60;;;18.10
68952;BMP180;56000;51.146;17.112;2023-02-28T10:08:25;101676.80;;;17.90
68952;BMP180;56000;51.146;17.112;2023-02-28T10:11:01;101677.60;;;18.00
68952;BMP180;56000;51.146;17.112;2023-02-28T10:13:41;101686.20;;;18.00
68952;BMP180;56000;51.146;17.112;2023-02-28T10:16:20;101684.20;;;18.52
68952;BMP180;56000;51.146;17.112;2023-02-28T10:18:58;101683.20;;;19.16
68952;BMP180;56000;51.146;17.112;2023-02-28T10:21:41;101683.40;;;19.50
68952;BMP180;56000;51.146;17.112;2023-02-28T10:24:26;101680.20;;;19.50
68952;BMP180;56000;51.146;17.112;2023-02-28T10:27:12;101680.20;;;19.40
68952;BMP180;56000;51.146;17.112;2023-02-28T10:29:48;101679.20;;;19.70
68952;BMP180;56000;51.146;17.112;2023-02-28T10:32:24;101677.40;;;20.10
68952;BMP180;56000;51.146;17.112;2023-02-28T10:35:06;101674.20;;;20.60
68952;BMP180;56000;51.146;17.112;2023-02-28T10:37:42;101678.80;;;21.06
68952;BMP180;56000;51.146;17.112;2023-02-28T10:40:34;101679.40;;;21.26
68952;BMP180;56000;51.146;17.112;2023-02-28T10:43:21;101673.80;;;21.50
68952;BMP180;56000;51.146;17.112;2023-02-28T10:46:01;101668.80;;;21.50
68952;BMP180;56000;51.146;17.112;2023-02-28T10:48:36;101675.20;;;21.88
68952;BMP180;56000;51.146;17.112;2023-02-28T10:51:11;101674.60;;;22.30
68952;BMP180;56000;51.146;17.112;2023-02-28T10:53:52;101680.20;;;22.40
68952;BMP180;56000;51.146;17.112;2023-02-28T10:56:32;101678.60;;;22.90
68952;BMP180;56000;51.146;17.112;2023-02-28T10:59:26;101673.60;;;22.90
68952;BMP180;56000;51.146;17.112;2023-02-28T11:02:00;101676.80;;;23.26
68952;BMP180;56000;51.146;17.112;2023-02-28T11:04:38;101678.40;;;23.64
68952;BMP180;56000;51.146;17.112;2023-02-28T11:07:21;101679.40;;;23.60
68952;BMP180;56000;51.146;17.112;2023-02-28T11:09:59;101668.40;;;23.40
68952;BMP180;56000;51.146;17.112;2023-02-28T11:12:37;101672.60;;;23.50
68952;BMP180;56000;51.146;17.112;2023-02-28T11:15:26;101670.00;;;23.74
68952;BMP180;56000;51.146;17.112;2023-02-28T11:18:17;101672.40;;;23.54
68952;BMP180;56000;51.146;17.112;2023-02-28T11:20:55;101666.60;;;23.20
68952;BMP180;56000;51.146;17.112;2023-02-28T11:23:32;101669.40;;;23.50
68952;BMP180;56000;51.146;17.112;2023-02-28T11:26:08;101664.80;;;23.90
68952;BMP180;56000;51.146;17.112;2023-02-28T11:28:43;101666.80;;;23.92
68952;BMP180;56000;51.146;17.112;2023-02-28T11:31:20;101667.40;;;23.82
68952;BMP180;56000;51.146;17.112;2023-02-28T11:33:55;101668.60;;;22.90
68952;BMP180;56000;51.146;17.112;2023-02-28T11:36:31;101664.40;;;23.16
68952;BMP180;56000;51.146;17.112;2023-02-28T11:39:12;101667.40;;;23.86
68952;BMP180;56000;51.146;17.112;2023-02-28T11:42:10;101673.20;;;22.90
68952;BMP180;56000;51.146;17.112;2023-02-28T11:44:59;101680.00;;;20.20
68952;BMP180;56000;51.146;17.112;2023-02-28T11:47:42;101678.20;;;17.98
68952;BMP180;56000;51.146;17.112;2023-02-28T11:50:32;101680.60;;;16.08
68952;BMP180;56000;51.146;17.112;2023-02-28T11:53:23;101678.00;;;14.20
68952;BMP180;56000;51.146;17.112;2023-02-28T11:56:03;101667.40;;;12.76
68952;BMP180;56000;51.146;17.112;2023-02-28T11:58:49;101667.60;;;11.94
68952;BMP180;56000;51.146;17.112;2023-02-28T12:01:52;101663.00;;;11.10
68952;BMP180;56000;51.146;17.112;2023-02-28T12:04:41;101657.00;;;12.56
68952;BMP180;56000;51.146;17.112;2023-02-28T12:07:25;101652.00;;;14.98
68952;BMP180;56000;51.146;17.112;2023-02-28T12:10:16;101648.80;;;17.04
68952;BMP180;56000;51.146;17.112;2023-02-28T12:13:04;101645.80;;;18.78
68952;BMP180;56000;51.146;17.112;2023-02-28T12:16:15;101639.20;;;20.10
68952;BMP180;56000;51.146;17.112;2023-02-28T12:19:06;101637.20;;;21.52
68952;BMP180;56000;51.146;17.112;2023-02-28T12:25:21;101629.40;;;22.90
68952;BMP180;56000;51.146;17.112;2023-02-28T12:27:57;101630.20;;;22.64
68952;BMP180;56000;51.146;17.112;2023-02-28T12:30:32;101631.40;;;22.10
68952;BMP180;56000;51.146;17.112;2023-02-28T12:33:11;101627.80;;;21.68
68952;BMP180;56000;51.146;17.112;2023-02-28T12:35:50;101628.80;;;21.50
68952;BMP180;56000;51.146;17.112;2023-02-28T12:38:31;101622.00;;;21.44
68952;BMP180;56000;51.146;17.112;2023-02-28T12:41:12;101624.40;;;21.30
68952;BMP180;56000;51.146;17.112;2023-02-28T12:43:50;101623.80;;;21.20
68952;BMP180;56000;51.146;17.112;2023-02-28T12:46:32;101615.60;;;21.20
68952;BMP180;56000;51.146;17.112;2023-02-28T12:49:08;101613.80;;;20.82
68952;BMP180;56000;51.146;17.112;2023-02-28T12:51:45;101611.20;;;20.50
68952;BMP180;56000;51.146;17.112;2023-02-28T12:54:25;101609.00;;;20.50
68952;BMP180;56000;51.146;17.112;2023-02-28T12:57:06;101610.40;;;20.20
68952;BMP180;56000;51.146;17.112;2023-02-28T12:59:45;101609.40;;;19.96
68952;BMP180;56000;51.146;17.112;2023-02-28T13:02:51;101601.60;;;19.60
68952;BMP180;56000;51.146;17.112;2023-02-28T13:05:59;101610.20;;;19.52
68952;BMP180;56000;51.146;17.112;2023-02-28T13:09:01;101603.20;;;19.28
68952;BMP180;56000;51.146;17.112;2023-02-28T13:11:41;101602.20;;;19.70
68952;BMP180;56000;51.146;17.112;2023-02-28T13:14:27;101604.60;;;19.80
68952;BMP180;56000;51.146;17.112;2023-02-28T13:17:11;101604.40;;;19.70
68952;BMP180;56000;51.146;17.112;2023-02-28T13:19:55;101611.20;;;19.70
68952;BMP180;56000;51.146;17.112;2023-02-28T13:22:44;101611.60;;;19.50
68952;BMP180;56000;51.146;17.112;2023-02-28T13:25:54;101621.80;;;19.10
68952;BMP180;56000;51.146;17.112;2023-02-28T13:32:33;101610.60;;;16.48
68952;BMP180;56000;51.146;17.112;2023-02-28T13:38:40;101620.40;;;14.66
68952;BMP180;56000;51.146;17.112;2023-02-28T13:41:56;101616.20;;;13.66
68952;BMP180;56000;51.146;17.112;2023-02-28T13:44:29;101606.40;;;12.82
68952;BMP180;56000;51.146;17.112;2023-02-28T13:47:29;101603.80;;;12.30
68952;BMP180;56000;51.146;17.112;2023-02-28T13:50:29;101608.00;;;11.80
68952;BMP180;56000;51.146;17.112;2023-02-28T13:53:36;101600.80;;;11.28
68952;BMP180;56000;51.146;17.112;2023-02-28T13:56:32;101595.20;;;10.62
68952;BMP180;56000;51.146;17.112;2023-02-28T13:59:22;101598.80;;;10.20
68952;BMP180;56000;51.146;17.112;2023-02-28T14:02:15;101591.20;;;9.58
68952;BMP180;56000;51.146;17.112;2023-02-28T14:05:04;101590.20;;;8.90
68952;BMP180;56000;51.146;17.112;2023-02-28T14:07:44;101586.00;;;8.60
68952;BMP180;56000;51.146;17.112;2023-02-28T14:10:39;101578.80;;;8.22
68952;BMP180;56000;51.146;17.112;2023-02-28T14:13:43;101585.20;;;7.88
68952;BMP180;56000;51.146;17.112;2023-02-28T14:16:23;101586.80;;;7.44
68952;BMP180;56000;51.146;17.112;2023-02-28T14:19:03;101582.40;;;7.10
68952;BMP180;56000;51.146;17.112;2023-02-28T14:21:53;101589.00;;;6.82
68952;BMP180;56000;51.146;17.112;2023-02-28T14:25:07;101580.20;;;6.64
68952;BMP180;56000;51.146;17.112;2023-02-28T14:27:49;101583.40;;;6.50
68952;BMP180;56000;51.146;17.112;2023-02-28T14:30:55;101572.40;;;6.50
68952;BMP180;56000;51.146;17.112;2023-02-28T14:33:53;101576.00;;;6.44
68952;BMP180;56000;51.146;17.112;2023-02-28T14:36:35;101580.00;;;6.30
68952;BMP180;56000;51.146;17.112;2023-02-28T14:39:14;101577.00;;;6.28
68952;BMP180;56000;51.146;17.112;2023-02-28T14:41:49;101576.60;;;6.16
68952;BMP180;56000;51.146;17.112;2023-02-28T14:44:25;101570.60;;;6.10
68952;BMP180;56000;51.146;17.112;2023-02-28T14:47:01;101569.80;;;6.00
68952;BMP180;56000;51.146;17.112;2023-02-28T14:49:42;101574.40;;;6.00
68952;BMP180;56000;51.146;17.112;2023-02-28T14:52:21;101572.60;;;5.98
68952;BMP180;56000;51.146;17.112;2023-02-28T14:54:57;101567.60;;;5.90
68952;BMP180;56000;51.146;17.112;2023-02-28T14:57:33;101566.60;;;5.80
68952;BMP180;56000;51.146;17.112;2023-02-28T15:00:16;101569.60;;;5.70
68952;BMP180;56000;51.146;17.112;2023-02-28T15:02:53;101570.40;;;5.70
68952;BMP180;56000;51.146;17.112;2023-02-28T15:05:32;101574.00;;;5.60
68952;BMP180;56000;51.146;17.112;2023-02-28T15:08:11;101570.80;;;5.60
68952;BMP180;56000;51.146;17.112;2023-02-28T15:10:45;101573.80;;;5.60
68952;BMP180;56000;51.146;17.112;2023-02-28T15:13:20;101575.00;;;5.52
68952;BMP180;56000;51.146;17.112;2023-02-28T15:15:56;101573.40;;;5.50